createdAt,value
2016-08-24T00:00:08.911Z,0
2016-08-24T00:00:54.119Z,0
2016-08-24T00:02:08.964Z,0
2016-08-24T00:03:23.909Z,0
2016-08-24T00:03:54.086Z,0
2016-08-24T00:05:54.135Z,0
2016-08-24T00:06:54.170Z,0
2016-08-24T00:07:54.197Z,0
2016-08-24T00:08:54.212Z,0
2016-08-24T00:09:54.248Z,0
2016-08-24T00:10:54.270Z,0
2016-08-24T00:11:54.298Z,0
2016-08-24T00:14:09.274Z,0
2016-08-24T00:15:09.304Z,0
2016-08-24T00:15:54.440Z,0
2016-08-24T00:17:09.355Z,0
2016-08-24T00:18:10.066Z,0
2016-08-24T00:18:54.469Z,0
2016-08-24T00:19:54.497Z,0
2016-08-24T00:20:54.527Z,0
2016-08-24T00:21:54.560Z,0
2016-08-24T00:22:54.584Z,0
2016-08-24T00:23:54.609Z,0
2016-08-24T00:25:09.563Z,0
2016-08-24T00:25:54.664Z,0
2016-08-24T00:26:54.689Z,0
2016-08-24T00:27:54.712Z,0
2016-08-24T00:28:54.734Z,0
2016-08-24T00:29:54.768Z,0
2016-08-24T00:31:09.712Z,0
2016-08-24T00:31:54.809Z,0
2016-08-24T00:32:54.840Z,0
2016-08-24T00:33:54.868Z,0
2016-08-24T00:34:54.886Z,0
2016-08-24T00:35:54.928Z,0
2016-08-24T00:36:54.942Z,0
2016-08-24T00:37:54.973Z,0
2016-08-24T00:38:54.995Z,0
2016-08-24T00:39:55.040Z,0
2016-08-24T00:40:55.049Z,0
2016-08-24T00:41:55.089Z,0
2016-08-24T00:43:10.021Z,0
2016-08-24T00:43:55.126Z,0
2016-08-24T00:45:10.079Z,0
2016-08-24T00:45:55.186Z,0
2016-08-24T00:46:55.214Z,0
2016-08-24T00:47:55.230Z,0
2016-08-24T00:49:10.178Z,0
2016-08-24T00:49:55.306Z,0
2016-08-24T00:52:10.327Z,0
2016-08-24T00:52:55.365Z,0
2016-08-24T00:54:10.313Z,0
2016-08-24T00:54:55.466Z,0
2016-08-24T00:55:55.436Z,0
2016-08-24T00:56:55.467Z,0
2016-08-24T00:57:55.500Z,0
2016-08-24T00:59:55.546Z,0
2016-08-24T01:00:55.574Z,0
2016-08-24T01:01:55.596Z,0
2016-08-24T01:03:10.640Z,0
2016-08-24T01:04:25.508Z,0
2016-08-24T01:05:25.521Z,0
2016-08-24T01:05:55.704Z,0
2016-08-24T01:06:55.737Z,0
2016-08-24T01:07:55.752Z,0
2016-08-24T01:08:55.779Z,0
2016-08-24T01:09:56.509Z,0
2016-08-24T01:11:10.753Z,0
2016-08-24T01:11:55.856Z,0
2016-08-24T01:12:55.888Z,0
2016-08-24T01:14:10.838Z,0
2016-08-24T01:14:55.936Z,0
2016-08-24T01:15:55.955Z,0
2016-08-24T01:16:55.999Z,0
2016-08-24T01:17:56.020Z,0
2016-08-24T01:18:56.034Z,0
2016-08-24T01:20:11.685Z,0
2016-08-24T01:21:11.013Z,0
2016-08-24T01:21:56.130Z,0
2016-08-24T01:22:56.149Z,0
2016-08-24T01:23:56.173Z,0
2016-08-24T01:25:11.131Z,0
2016-08-24T01:25:56.234Z,0
2016-08-24T01:27:11.167Z,0
2016-08-24T01:27:56.275Z,0
2016-08-24T01:28:56.302Z,0
2016-08-24T01:29:56.322Z,0
2016-08-24T01:30:57.046Z,0
2016-08-24T01:31:56.386Z,0
2016-08-24T01:32:56.400Z,0
2016-08-24T01:33:56.435Z,0
2016-08-24T01:34:56.461Z,0
2016-08-24T01:35:56.476Z,0
2016-08-24T01:37:11.438Z,0
2016-08-24T01:37:56.536Z,0
2016-08-24T01:38:56.559Z,0
2016-08-24T01:39:56.594Z,0
2016-08-24T01:41:11.535Z,0
2016-08-24T01:41:56.637Z,0
2016-08-24T01:42:56.670Z,0
2016-08-24T01:43:56.684Z,0
2016-08-24T01:44:56.737Z,0
2016-08-24T01:45:56.750Z,0
2016-08-24T01:46:56.768Z,0
2016-08-24T01:47:56.807Z,0
2016-08-24T01:48:56.819Z,0
2016-08-24T01:49:56.851Z,0
2016-08-24T01:50:56.872Z,0
2016-08-24T01:52:26.747Z,0
2016-08-24T01:53:11.844Z,0
2016-08-24T01:53:56.999Z,0
2016-08-24T01:54:57.032Z,0
2016-08-24T01:55:57.002Z,0
2016-08-24T01:56:57.028Z,0
2016-08-24T01:57:57.045Z,0
2016-08-24T01:58:57.075Z,0
2016-08-24T01:59:57.118Z,0
2016-08-24T02:00:57.141Z,0
2016-08-24T02:01:57.161Z,0
2016-08-24T02:02:57.191Z,0
2016-08-24T02:03:57.214Z,0
2016-08-24T02:04:57.293Z,0
2016-08-24T02:06:12.189Z,0
2016-08-24T02:06:57.297Z,0
2016-08-24T02:07:57.315Z,0
2016-08-24T02:08:57.341Z,0
2016-08-24T02:10:12.293Z,0
2016-08-24T02:10:57.391Z,0
2016-08-24T02:11:57.414Z,0
2016-08-24T02:12:57.449Z,0
2016-08-24T02:13:57.474Z,0
2016-08-24T02:14:57.489Z,0
2016-08-24T02:16:57.554Z,0
2016-08-24T02:17:57.620Z,0
2016-08-24T02:18:57.620Z,0
2016-08-24T02:19:57.629Z,0
2016-08-24T02:21:12.576Z,0
2016-08-24T02:21:57.676Z,0
2016-08-24T02:22:57.700Z,0
2016-08-24T02:24:12.648Z,0
2016-08-24T02:24:57.774Z,0
2016-08-24T02:25:57.784Z,0
2016-08-24T02:27:12.736Z,0
2016-08-24T02:27:57.831Z,0
2016-08-24T02:28:57.854Z,0
2016-08-24T02:29:57.879Z,0
2016-08-24T02:30:57.915Z,0
2016-08-24T02:31:57.932Z,0
2016-08-24T02:32:57.970Z,0
2016-08-24T02:33:57.993Z,0
2016-08-24T02:34:58.014Z,0
2016-08-24T02:35:58.034Z,0
2016-08-24T02:36:58.061Z,0
2016-08-24T02:38:58.123Z,0
2016-08-24T02:40:13.068Z,0
2016-08-24T02:41:13.094Z,0
2016-08-24T02:42:58.225Z,0
2016-08-24T02:43:58.258Z,0
2016-08-24T02:44:58.284Z,0
2016-08-24T02:45:58.299Z,0
2016-08-24T02:47:58.361Z,0
2016-08-24T02:48:58.382Z,0
2016-08-24T02:49:58.423Z,0
2016-08-24T02:50:58.432Z,0
2016-08-24T02:51:58.461Z,0
2016-08-24T02:53:13.412Z,0
2016-08-24T02:53:58.509Z,0
2016-08-24T02:55:13.502Z,0
2016-08-24T02:56:13.483Z,0
2016-08-24T02:56:58.590Z,0
2016-08-24T02:57:58.665Z,0
2016-08-24T02:58:58.644Z,0
2016-08-24T03:00:58.686Z,0
2016-08-24T03:03:13.665Z,0
2016-08-24T03:03:58.775Z,0
2016-08-24T03:04:59.489Z,0
2016-08-24T03:05:58.811Z,0
2016-08-24T03:06:58.850Z,0
2016-08-24T03:07:58.875Z,0
2016-08-24T03:08:59.589Z,0
2016-08-24T03:09:58.978Z,0
2016-08-24T03:10:58.958Z,0
2016-08-24T03:12:59.000Z,0
2016-08-24T03:13:59.034Z,0
2016-08-24T03:14:59.059Z,0
2016-08-24T03:16:59.103Z,0
2016-08-24T03:17:59.128Z,0
2016-08-24T03:18:59.211Z,0
2016-08-24T03:19:59.189Z,0
2016-08-24T03:21:14.127Z,0
2016-08-24T03:21:59.236Z,0
2016-08-24T03:22:59.267Z,0
2016-08-24T03:24:59.316Z,0
2016-08-24T03:25:59.339Z,0
2016-08-24T03:27:29.210Z,0
2016-08-24T03:28:14.315Z,0
2016-08-24T03:28:59.420Z,0
2016-08-24T03:29:59.431Z,0
2016-08-24T03:30:59.470Z,0
2016-08-24T03:32:14.418Z,0
2016-08-24T03:32:59.511Z,0
2016-08-24T03:33:59.549Z,0
2016-08-24T03:34:59.569Z,0
2016-08-24T03:35:59.596Z,0
2016-08-24T03:37:14.547Z,0
2016-08-24T03:37:59.649Z,0
2016-08-24T03:39:00.374Z,0
2016-08-24T03:39:59.698Z,0
2016-08-24T03:40:59.728Z,0
2016-08-24T03:41:59.756Z,0
2016-08-24T03:42:59.781Z,0
2016-08-24T03:43:59.810Z,0
2016-08-24T03:44:59.832Z,0
2016-08-24T03:46:14.781Z,0
2016-08-24T03:46:59.886Z,0
2016-08-24T03:47:59.909Z,0
2016-08-24T03:48:59.937Z,0
2016-08-24T03:49:59.957Z,0
2016-08-24T03:50:59.984Z,0
2016-08-24T03:52:00.015Z,0
2016-08-24T03:53:14.963Z,0
2016-08-24T03:54:00.066Z,0
2016-08-24T03:55:00.093Z,0
2016-08-24T03:56:00.117Z,0
2016-08-24T03:57:00.196Z,0
2016-08-24T03:58:00.161Z,0
2016-08-24T03:59:30.037Z,0
2016-08-24T04:00:15.151Z,0
2016-08-24T04:01:00.239Z,0
2016-08-24T04:02:00.269Z,0
2016-08-24T04:03:00.295Z,0
2016-08-24T04:04:00.318Z,0
2016-08-24T04:05:00.360Z,0
2016-08-24T04:06:00.419Z,0
2016-08-24T04:07:00.397Z,0
2016-08-24T04:08:00.429Z,0
2016-08-24T04:09:00.450Z,5
2016-08-24T04:10:00.471Z,5
2016-08-24T04:11:00.502Z,5
2016-08-24T04:12:15.451Z,5
2016-08-24T04:13:00.557Z,5
2016-08-24T04:14:15.499Z,5
2016-08-24T04:15:15.522Z,5
2016-08-24T04:16:15.550Z,10
2016-08-24T04:17:00.658Z,10
2016-08-24T04:18:00.691Z,10
2016-08-24T04:19:00.755Z,10
2016-08-24T04:20:00.735Z,10
2016-08-24T04:21:00.779Z,10
2016-08-24T04:22:00.785Z,10
2016-08-24T04:23:15.736Z,15
2016-08-24T04:24:00.834Z,15
2016-08-24T04:25:00.863Z,15
2016-08-24T04:26:00.901Z,15
2016-08-24T04:27:15.837Z,15
2016-08-24T04:28:00.939Z,15
2016-08-24T04:29:00.973Z,15
2016-08-24T04:30:15.914Z,15
2016-08-24T04:31:15.945Z,15
2016-08-24T04:32:15.972Z,15
2016-08-24T04:33:01.073Z,15
2016-08-24T04:34:01.095Z,15
2016-08-24T04:35:01.121Z,20
2016-08-24T04:36:01.141Z,20
2016-08-24T04:37:01.181Z,20
2016-08-24T04:38:01.194Z,20
2016-08-24T04:39:01.222Z,20
2016-08-24T04:40:01.253Z,20
2016-08-24T04:41:01.280Z,20
2016-08-24T04:42:16.234Z,20
2016-08-24T04:43:16.260Z,25
2016-08-24T04:44:01.352Z,25
2016-08-24T04:45:01.394Z,25
2016-08-24T04:46:02.121Z,25
2016-08-24T04:47:16.360Z,25
2016-08-24T04:48:01.455Z,25
2016-08-24T04:49:02.183Z,25
2016-08-24T04:50:01.516Z,25
2016-08-24T04:51:16.462Z,25
2016-08-24T04:52:01.559Z,25
2016-08-24T04:53:01.593Z,25
2016-08-24T04:54:01.618Z,25
2016-08-24T04:55:01.641Z,25
2016-08-24T04:56:01.664Z,25
2016-08-24T04:57:01.693Z,25
2016-08-24T04:58:16.708Z,30
2016-08-24T04:59:31.596Z,30
2016-08-24T05:00:01.777Z,30
2016-08-24T05:01:01.804Z,30
2016-08-24T05:02:16.751Z,30
2016-08-24T05:03:01.862Z,30
2016-08-24T05:04:16.795Z,30
2016-08-24T05:05:01.902Z,30
2016-08-24T05:06:01.977Z,30
2016-08-24T05:07:01.954Z,35
2016-08-24T05:08:01.976Z,35
2016-08-24T05:09:02.012Z,35
2016-08-24T05:10:16.958Z,35
2016-08-24T05:11:02.061Z,35
2016-08-24T05:12:02.091Z,40
2016-08-24T05:13:02.126Z,40
2016-08-24T05:16:02.181Z,45
2016-08-24T05:18:02.250Z,50
2016-08-24T05:19:32.114Z,50
2016-08-24T05:20:02.290Z,50
2016-08-24T05:21:02.327Z,50
2016-08-24T05:22:02.340Z,50
2016-08-24T05:23:02.367Z,50
2016-08-24T05:24:02.400Z,50
2016-08-24T05:25:02.431Z,50
2016-08-24T05:26:02.492Z,50
2016-08-24T05:27:02.473Z,50
2016-08-24T05:28:02.499Z,50
2016-08-24T05:29:03.237Z,50
2016-08-24T05:30:17.477Z,50
2016-08-24T05:31:02.587Z,50
2016-08-24T05:32:02.623Z,50
2016-08-24T05:33:32.486Z,50
2016-08-24T05:34:32.506Z,50
2016-08-24T05:35:02.681Z,50
2016-08-24T05:36:02.715Z,55
2016-08-24T05:37:17.662Z,55
2016-08-24T05:38:02.770Z,60
2016-08-24T05:39:02.795Z,60
2016-08-24T05:40:17.738Z,65
2016-08-24T05:41:02.839Z,70
2016-08-24T05:42:02.882Z,70
2016-08-24T05:43:02.891Z,70
2016-08-24T05:44:02.916Z,75
2016-08-24T05:45:02.954Z,75
2016-08-24T05:46:17.899Z,75
2016-08-24T05:47:17.923Z,80
2016-08-24T05:48:03.026Z,80
2016-08-24T05:49:32.901Z,90
2016-08-24T05:50:18.006Z,95
2016-08-24T05:51:03.117Z,100
2016-08-24T05:52:03.132Z,100
2016-08-24T05:53:03.157Z,105
2016-08-24T05:54:03.187Z,110
2016-08-24T05:55:03.210Z,120
2016-08-24T05:56:03.236Z,125
2016-08-24T05:57:03.263Z,135
2016-08-24T05:58:03.339Z,140
2016-08-24T05:59:03.317Z,145
2016-08-24T06:00:18.265Z,160
2016-08-24T06:01:33.222Z,175
2016-08-24T06:03:03.417Z,185
2016-08-24T06:04:03.454Z,190
2016-08-24T06:05:18.401Z,190
2016-08-24T06:06:18.435Z,190
2016-08-24T06:07:03.535Z,185
2016-08-24T06:08:03.557Z,185
2016-08-24T06:10:03.613Z,185
2016-08-24T06:11:03.664Z,190
2016-08-24T06:13:03.690Z,200
2016-08-24T06:14:03.722Z,205
2016-08-24T06:15:03.751Z,215
2016-08-24T06:16:03.766Z,220
2016-08-24T06:17:03.798Z,230
2016-08-24T06:18:03.826Z,240
2016-08-24T06:19:03.854Z,250
2016-08-24T06:20:03.890Z,255
2016-08-24T06:21:03.904Z,275
2016-08-24T06:22:18.862Z,305
2016-08-24T06:23:03.978Z,330
2016-08-24T06:24:18.963Z,350
2016-08-24T06:25:04.009Z,355
2016-08-24T06:27:18.995Z,360
2016-08-24T06:28:04.094Z,350
2016-08-24T06:29:04.133Z,350
2016-08-24T06:30:04.197Z,365
2016-08-24T06:32:04.209Z,435
2016-08-24T06:34:19.240Z,530
2016-08-24T06:36:04.315Z,540
2016-08-24T06:37:19.272Z,520
2016-08-24T06:38:04.378Z,650
2016-08-24T06:39:04.410Z,635
2016-08-24T06:40:04.458Z,555
2016-08-24T06:41:04.478Z,570
2016-08-24T06:42:04.502Z,590
2016-08-24T06:43:04.533Z,625
2016-08-24T06:44:04.560Z,595
2016-08-24T06:45:04.735Z,655
2016-08-24T06:46:04.617Z,665
2016-08-24T06:47:19.572Z,660
2016-08-24T06:48:19.604Z,720
2016-08-24T06:49:04.714Z,880
2016-08-24T06:50:19.676Z,1535
2016-08-24T06:51:04.781Z,1785
2016-08-24T06:52:04.815Z,1690
2016-08-24T06:53:04.846Z,1605
2016-08-24T06:54:04.891Z,1575
2016-08-24T06:55:04.918Z,1665
2016-08-24T06:56:04.950Z,1490
2016-08-24T06:57:04.995Z,1360
2016-08-24T06:58:05.014Z,1295
2016-08-24T06:59:05.052Z,1310
2016-08-24T07:00:05.086Z,1310
2016-08-24T07:01:05.117Z,1335
2016-08-24T07:02:20.083Z,1395
2016-08-24T07:03:05.189Z,1360
2016-08-24T07:05:20.882Z,1310
2016-08-24T07:07:05.333Z,1325
2016-08-24T07:08:05.377Z,1290
2016-08-24T07:09:20.330Z,1240
2016-08-24T07:10:05.482Z,1270
2016-08-24T07:11:05.473Z,1270
2016-08-24T07:12:05.520Z,1250
2016-08-24T07:13:05.536Z,1270
2016-08-24T07:14:05.587Z,1265
2016-08-24T07:15:20.548Z,1205
2016-08-24T07:17:05.690Z,1170
2016-08-24T07:19:06.453Z,1265
2016-08-24T07:20:05.796Z,1300
2016-08-24T07:21:05.845Z,1270
2016-08-24T07:22:20.796Z,1285
2016-08-24T07:23:05.896Z,1305
2016-08-24T07:24:05.942Z,1270
2016-08-24T07:25:20.925Z,1260
2016-08-24T07:26:06.012Z,1245
2016-08-24T07:27:06.113Z,1230
2016-08-24T07:28:06.086Z,1235
2016-08-24T07:29:06.113Z,1280
2016-08-24T07:30:06.169Z,1285
2016-08-24T07:31:06.195Z,1215
2016-08-24T07:32:06.225Z,1165
2016-08-24T07:33:06.319Z,1165
2016-08-24T07:34:06.297Z,1120
2016-08-24T07:35:06.339Z,1115
2016-08-24T07:36:06.373Z,1080
2016-08-24T07:37:06.412Z,1050
2016-08-24T07:38:06.439Z,1055
2016-08-24T07:39:06.532Z,1095
2016-08-24T07:40:06.524Z,1105
2016-08-24T07:41:21.477Z,1090
2016-08-24T07:43:06.630Z,1100
2016-08-24T07:44:06.672Z,1090
2016-08-24T07:45:07.405Z,1075
2016-08-24T07:46:06.737Z,1100
2016-08-24T07:47:06.775Z,1075
2016-08-24T07:48:06.809Z,1080
2016-08-24T07:49:06.845Z,1095
2016-08-24T07:50:06.896Z,1080
2016-08-24T07:51:06.911Z,1080
2016-08-24T07:52:06.964Z,1070
2016-08-24T07:53:21.917Z,1065
2016-08-24T07:54:07.029Z,1050
2016-08-24T07:55:07.066Z,1060
2016-08-24T07:57:22.073Z,1130
2016-08-24T07:58:07.171Z,1125
2016-08-24T07:59:07.215Z,1095
2016-08-24T08:00:07.255Z,1075
2016-08-24T08:01:07.294Z,1075
2016-08-24T08:02:07.324Z,1055
2016-08-24T08:03:07.355Z,1050
2016-08-24T08:04:07.394Z,1010
2016-08-24T08:05:07.437Z,950
2016-08-24T08:06:07.466Z,970
2016-08-24T08:07:07.521Z,975
2016-08-24T08:08:07.543Z,960
2016-08-24T08:09:07.587Z,945
2016-08-24T08:10:07.684Z,940
2016-08-24T08:11:07.664Z,885
2016-08-24T08:12:22.623Z,885
2016-08-24T08:13:22.653Z,915
2016-08-24T08:16:07.840Z,885
2016-08-24T08:17:07.876Z,860
2016-08-24T08:18:08.641Z,845
2016-08-24T08:20:22.913Z,825
2016-08-24T08:21:22.967Z,805
2016-08-24T08:22:08.062Z,800
2016-08-24T08:23:08.094Z,810
2016-08-24T08:24:08.839Z,805
2016-08-24T08:25:08.178Z,800
2016-08-24T08:26:08.206Z,770
2016-08-24T08:28:08.331Z,745
2016-08-24T08:29:08.310Z,740
2016-08-24T08:30:08.360Z,730
2016-08-24T08:31:08.394Z,740
2016-08-24T08:32:09.113Z,740
2016-08-24T08:33:08.468Z,645
2016-08-24T08:34:08.506Z,285
2016-08-24T08:35:08.535Z,690
2016-08-24T08:36:08.584Z,695
2016-08-24T08:37:08.613Z,690
2016-08-24T08:38:08.644Z,695
2016-08-24T08:39:38.539Z,680
2016-08-24T08:40:08.726Z,675
2016-08-24T08:41:23.682Z,245
2016-08-24T08:42:08.803Z,260
2016-08-24T08:43:08.839Z,545
2016-08-24T08:44:23.793Z,635
2016-08-24T08:45:08.900Z,645
2016-08-24T08:46:08.935Z,620
2016-08-24T08:47:08.967Z,605
2016-08-24T08:48:09.012Z,615
2016-08-24T08:49:09.058Z,615
2016-08-24T08:50:09.133Z,610
2016-08-24T08:51:24.055Z,600
2016-08-24T08:52:24.085Z,600
2016-08-24T08:53:09.185Z,605
2016-08-24T08:54:24.150Z,605
2016-08-24T08:55:09.263Z,605
2016-08-24T08:56:09.298Z,575
2016-08-24T08:57:24.262Z,555
2016-08-24T08:58:09.367Z,575
2016-08-24T08:59:10.102Z,570
2016-08-24T09:00:39.290Z,545
2016-08-24T09:02:09.512Z,530
2016-08-24T09:03:24.475Z,535
2016-08-24T09:04:09.583Z,535
2016-08-24T09:05:09.614Z,525
2016-08-24T09:06:09.646Z,515
2016-08-24T09:07:09.699Z,520
2016-08-24T09:08:09.729Z,525
2016-08-24T09:09:09.756Z,510
2016-08-24T09:10:09.810Z,515
2016-08-24T09:11:09.836Z,510
2016-08-24T09:12:09.868Z,515
2016-08-24T09:13:09.903Z,515
2016-08-24T09:14:09.935Z,515
2016-08-24T09:15:25.597Z,505
2016-08-24T09:16:24.938Z,505
2016-08-24T09:17:24.980Z,515
2016-08-24T09:18:25.024Z,510
2016-08-24T09:19:10.118Z,505
2016-08-24T09:20:10.160Z,505
2016-08-24T09:21:10.198Z,485
2016-08-24T09:22:10.914Z,480
2016-08-24T09:23:10.263Z,375
2016-08-24T09:24:10.995Z,210
2016-08-24T09:25:11.026Z,300
2016-08-24T09:27:10.409Z,190
2016-08-24T09:30:10.519Z,220
2016-08-24T09:31:10.552Z,335
2016-08-24T09:32:25.504Z,320
2016-08-24T09:33:10.620Z,300
2016-08-24T09:34:25.582Z,255
2016-08-24T09:35:10.720Z,335
2016-08-24T09:36:10.789Z,325
2016-08-24T09:37:10.761Z,325
2016-08-24T09:38:10.787Z,300
2016-08-24T09:39:10.833Z,320
2016-08-24T09:40:10.867Z,270
2016-08-24T09:41:10.901Z,245
2016-08-24T09:42:11.626Z,295
2016-08-24T09:43:10.971Z,310
2016-08-24T09:44:11.000Z,320
2016-08-24T09:45:11.042Z,320
2016-08-24T09:46:25.998Z,320
2016-08-24T09:47:26.033Z,315
2016-08-24T09:48:11.144Z,320
2016-08-24T09:49:26.100Z,325
2016-08-24T09:50:26.136Z,320
2016-08-24T09:51:11.255Z,320
2016-08-24T09:52:11.282Z,320
2016-08-24T09:53:11.323Z,320
2016-08-24T09:54:11.348Z,320
2016-08-24T09:55:26.321Z,320
2016-08-24T09:56:26.344Z,315
2016-08-24T09:57:11.465Z,310
2016-08-24T09:58:11.488Z,305
2016-08-24T09:59:11.522Z,305
2016-08-24T10:00:12.259Z,300
2016-08-24T10:01:11.605Z,300
2016-08-24T10:02:12.339Z,295
2016-08-24T10:03:41.518Z,295
2016-08-24T10:04:11.722Z,290
2016-08-24T10:05:11.745Z,285
2016-08-24T10:06:26.699Z,285
2016-08-24T10:07:11.810Z,290
2016-08-24T10:08:11.836Z,285
2016-08-24T10:09:11.875Z,285
2016-08-24T10:10:11.919Z,280
2016-08-24T10:11:11.946Z,285
2016-08-24T10:12:11.990Z,285
2016-08-24T10:13:12.021Z,280
2016-08-24T10:14:26.982Z,280
2016-08-24T10:15:12.158Z,280
2016-08-24T10:16:27.051Z,280
2016-08-24T10:17:27.083Z,280
2016-08-24T10:18:12.192Z,280
2016-08-24T10:19:27.146Z,280
2016-08-24T10:20:12.268Z,280
2016-08-24T10:22:12.333Z,280
2016-08-24T10:23:12.376Z,275
2016-08-24T10:24:12.401Z,270
2016-08-24T10:25:12.435Z,265
2016-08-24T10:26:12.469Z,265
2016-08-24T10:27:12.510Z,265
2016-08-24T10:28:13.243Z,265
2016-08-24T10:29:12.582Z,260
2016-08-24T10:30:12.609Z,260
2016-08-24T10:31:12.637Z,260
2016-08-24T10:32:12.673Z,260
2016-08-24T10:33:12.712Z,260
2016-08-24T10:34:12.744Z,255
2016-08-24T10:35:27.708Z,260
2016-08-24T10:36:12.815Z,255
2016-08-24T10:37:42.699Z,255
2016-08-24T10:38:12.879Z,250
2016-08-24T10:39:28.198Z,250
2016-08-24T10:41:12.983Z,230
2016-08-24T10:42:13.018Z,230
2016-08-24T10:43:13.048Z,235
2016-08-24T10:44:13.089Z,235
2016-08-24T10:45:13.134Z,235
2016-08-24T10:46:13.165Z,230
2016-08-24T10:47:13.189Z,220
2016-08-24T10:48:13.287Z,225
2016-08-24T10:50:13.295Z,225
2016-08-24T10:51:28.252Z,225
2016-08-24T10:52:13.366Z,225
2016-08-24T10:53:13.392Z,225
2016-08-24T10:54:13.425Z,225
2016-08-24T10:55:13.468Z,220
2016-08-24T10:57:13.534Z,215
2016-08-24T10:58:13.560Z,215
2016-08-24T10:59:13.603Z,210
2016-08-24T11:01:13.673Z,205
2016-08-24T11:02:13.700Z,200
2016-08-24T11:04:13.766Z,195
2016-08-24T11:05:13.797Z,190
2016-08-24T11:06:13.838Z,190
2016-08-24T11:07:28.792Z,185
2016-08-24T11:08:13.901Z,185
2016-08-24T11:09:13.939Z,180
2016-08-24T11:10:13.969Z,180
2016-08-24T11:11:14.000Z,175
2016-08-24T11:12:14.035Z,175
2016-08-24T11:13:14.072Z,175
2016-08-24T11:14:14.113Z,170
2016-08-24T11:15:14.191Z,175
2016-08-24T11:16:14.215Z,170
2016-08-24T11:17:14.190Z,165
2016-08-24T11:18:14.246Z,165
2016-08-24T11:19:14.958Z,165
2016-08-24T11:20:14.298Z,165
2016-08-24T11:21:14.340Z,165
2016-08-24T11:22:29.293Z,160
2016-08-24T11:23:15.096Z,160
2016-08-24T11:24:14.432Z,145
2016-08-24T11:25:14.476Z,160
2016-08-24T11:26:29.422Z,160
2016-08-24T11:27:29.456Z,160
2016-08-24T11:28:14.559Z,160
2016-08-24T11:29:14.610Z,160
2016-08-24T11:30:14.631Z,155
2016-08-24T11:31:14.662Z,155
2016-08-24T11:32:14.699Z,155
2016-08-24T11:33:14.725Z,155
2016-08-24T11:34:14.753Z,155
2016-08-24T11:35:29.720Z,155
2016-08-24T11:36:29.750Z,155
2016-08-24T11:37:14.850Z,155
2016-08-24T11:38:14.897Z,150
2016-08-24T11:39:14.920Z,150
2016-08-24T11:40:14.952Z,150
2016-08-24T11:41:14.983Z,150
2016-08-24T11:42:15.019Z,150
2016-08-24T11:43:15.048Z,145
2016-08-24T11:44:15.079Z,145
2016-08-24T11:45:15.114Z,145
2016-08-24T11:46:15.145Z,145
2016-08-24T11:47:15.181Z,145
2016-08-24T11:48:15.559Z,145
2016-08-24T11:49:30.181Z,145
2016-08-24T11:50:15.273Z,145
2016-08-24T11:51:45.164Z,145
2016-08-24T11:52:15.337Z,145
2016-08-24T11:53:15.379Z,145
2016-08-24T11:54:30.384Z,145
2016-08-24T11:55:15.442Z,145
2016-08-24T11:56:15.480Z,145
2016-08-24T11:57:15.495Z,145
2016-08-24T11:58:15.536Z,145
2016-08-24T11:59:15.572Z,145
2016-08-24T12:00:15.613Z,145
2016-08-24T12:02:15.667Z,145
2016-08-24T12:03:15.705Z,145
2016-08-24T12:04:15.743Z,145
2016-08-24T12:05:15.766Z,145
2016-08-24T12:06:15.804Z,145
2016-08-24T12:07:15.849Z,145
2016-08-24T12:08:15.875Z,145
2016-08-24T12:09:16.048Z,150
2016-08-24T12:10:30.851Z,150
2016-08-24T12:11:15.959Z,150
2016-08-24T12:12:15.993Z,150
2016-08-24T12:13:16.722Z,150
2016-08-24T12:14:16.053Z,150
2016-08-24T12:15:16.786Z,150
2016-08-24T12:16:16.113Z,150
2016-08-24T12:17:16.152Z,150
2016-08-24T12:18:16.237Z,150
2016-08-24T12:19:31.143Z,150
2016-08-24T12:20:16.252Z,150
2016-08-24T12:22:32.096Z,150
2016-08-24T12:23:31.277Z,150
2016-08-24T12:24:16.377Z,150
2016-08-24T12:25:16.414Z,150
2016-08-24T12:26:31.360Z,150
2016-08-24T12:27:16.480Z,150
2016-08-24T12:28:31.437Z,150
2016-08-24T12:29:16.536Z,150
2016-08-24T12:30:16.570Z,150
2016-08-24T12:31:16.597Z,155
2016-08-24T12:33:16.663Z,155
2016-08-24T12:34:16.692Z,155
2016-08-24T12:35:16.731Z,155
2016-08-24T12:36:16.769Z,155
2016-08-24T12:37:16.796Z,155
2016-08-24T12:38:16.824Z,160
2016-08-24T12:39:16.860Z,155
2016-08-24T12:40:16.889Z,155
2016-08-24T12:41:31.846Z,155
2016-08-24T12:42:31.876Z,155
2016-08-24T12:43:16.988Z,160
2016-08-24T12:44:17.705Z,155
2016-08-24T12:45:17.744Z,155
2016-08-24T12:46:17.095Z,155
2016-08-24T12:47:17.125Z,155
2016-08-24T12:48:17.141Z,155
2016-08-24T12:49:17.178Z,155
2016-08-24T12:50:17.208Z,155
2016-08-24T12:51:32.218Z,155
2016-08-24T12:52:17.280Z,155
2016-08-24T12:54:17.328Z,155
2016-08-24T12:55:32.293Z,155
2016-08-24T12:56:17.398Z,155
2016-08-24T12:57:32.364Z,155
2016-08-24T12:58:32.394Z,155
2016-08-24T12:59:17.492Z,155
2016-08-24T13:00:17.524Z,155
2016-08-24T13:01:17.566Z,160
2016-08-24T13:02:17.587Z,155
2016-08-24T13:03:17.621Z,155
2016-08-24T13:04:17.660Z,155
2016-08-24T13:05:17.685Z,155
2016-08-24T13:06:32.641Z,155
2016-08-24T13:08:17.782Z,155
2016-08-24T13:09:17.823Z,155
2016-08-24T13:10:17.846Z,155
2016-08-24T13:11:17.879Z,155
2016-08-24T13:12:32.835Z,155
2016-08-24T13:13:17.945Z,160
2016-08-24T13:14:17.976Z,160
2016-08-24T13:15:18.006Z,155
2016-08-24T13:16:18.033Z,155
2016-08-24T13:17:32.997Z,160
2016-08-24T13:18:18.103Z,160
2016-08-24T13:19:18.130Z,155
2016-08-24T13:20:18.169Z,160
2016-08-24T13:22:33.157Z,155
2016-08-24T13:23:18.263Z,155
2016-08-24T13:24:33.322Z,160
2016-08-24T13:25:18.325Z,160
2016-08-24T13:26:33.282Z,160
2016-08-24T13:27:19.104Z,160
2016-08-24T13:28:48.272Z,160
2016-08-24T13:29:33.383Z,160
2016-08-24T13:30:18.492Z,160
2016-08-24T13:31:18.511Z,160
2016-08-24T13:32:18.545Z,160
2016-08-24T13:33:18.624Z,160
2016-08-24T13:34:33.536Z,160
2016-08-24T13:35:18.655Z,160
2016-08-24T13:36:18.684Z,160
2016-08-24T13:37:19.407Z,155
2016-08-24T13:38:18.735Z,160
2016-08-24T13:39:19.481Z,160
2016-08-24T13:41:18.832Z,160
2016-08-24T13:42:18.897Z,155
2016-08-24T13:43:33.819Z,155
2016-08-24T13:44:18.922Z,155
2016-08-24T13:45:33.896Z,155
2016-08-24T13:46:19.000Z,155
2016-08-24T13:47:19.014Z,155
2016-08-24T13:48:19.048Z,155
2016-08-24T13:49:34.018Z,155
2016-08-24T13:50:19.123Z,155
2016-08-24T13:51:19.156Z,155
2016-08-24T13:52:19.177Z,155
2016-08-24T13:54:19.248Z,155
2016-08-24T13:55:19.302Z,155
2016-08-24T13:56:19.313Z,155
2016-08-24T13:58:19.428Z,155
2016-08-24T13:59:19.456Z,155
2016-08-24T14:00:19.437Z,155
2016-08-24T14:01:34.393Z,155
2016-08-24T14:02:19.490Z,155
2016-08-24T14:03:34.459Z,155
2016-08-24T14:04:34.481Z,155
2016-08-24T14:05:20.286Z,155
2016-08-24T14:06:19.630Z,155
2016-08-24T14:07:19.656Z,155
2016-08-24T14:08:19.689Z,155
2016-08-24T14:09:19.724Z,155
2016-08-24T14:10:19.752Z,155
2016-08-24T14:11:19.790Z,155
2016-08-24T14:12:19.827Z,155
2016-08-24T14:13:34.776Z,155
2016-08-24T14:14:19.879Z,155
2016-08-24T14:15:19.911Z,155
2016-08-24T14:16:19.947Z,155
2016-08-24T14:17:34.903Z,155
2016-08-24T14:18:20.010Z,155
2016-08-24T14:19:20.039Z,155
2016-08-24T14:20:20.073Z,155
2016-08-24T14:21:20.094Z,155
2016-08-24T14:22:20.133Z,155
2016-08-24T14:23:20.166Z,155
2016-08-24T14:24:20.189Z,155
2016-08-24T14:25:35.157Z,155
2016-08-24T14:26:35.192Z,155
2016-08-24T14:27:20.295Z,155
2016-08-24T14:28:35.243Z,150
2016-08-24T14:29:35.431Z,150
2016-08-24T14:30:35.313Z,150
2016-08-24T14:31:20.425Z,150
2016-08-24T14:32:35.371Z,150
2016-08-24T14:33:20.486Z,150
2016-08-24T14:34:35.433Z,150
2016-08-24T14:35:20.538Z,150
2016-08-24T14:36:20.640Z,150
2016-08-24T14:37:35.532Z,150
2016-08-24T14:38:20.632Z,150
2016-08-24T14:39:20.682Z,150
2016-08-24T14:40:20.697Z,150
2016-08-24T14:41:20.732Z,150
2016-08-24T14:42:20.762Z,150
2016-08-24T14:43:20.793Z,150
2016-08-24T14:44:35.749Z,150
2016-08-24T14:45:20.856Z,150
2016-08-24T14:46:20.882Z,150
2016-08-24T14:47:35.844Z,150
2016-08-24T14:48:35.873Z,150
2016-08-24T14:49:20.988Z,150
2016-08-24T14:50:21.016Z,150
2016-08-24T14:51:21.049Z,150
2016-08-24T14:52:21.071Z,150
2016-08-24T14:53:21.105Z,150
2016-08-24T14:54:21.842Z,145
2016-08-24T14:55:21.173Z,145